Time;durP1;ratioP1;P1;durP2;ratioP2;P2;SDS_P1;SDS_P2;PMS_P1;PMS_P2;Temp;Humidity;BMP_temperature;BMP_pressure;BME280_temperature;BME280_humidity;BME280_pressure;Samples;Min_cycle;Max_cycle;Signal;HPM_P1;HPM_P2
2021/01/17 00:01:09;;;;;;;6.00;0.52;;;;;;;;;;5072021;28;20040;-74
2021/01/17 00:03:36;;;;;;;4.05;0.80;;;;;;;;;;5071450;28;20024;-74
2021/01/17 00:06:03;;;;;;;4.65;0.50;;;;;;;;;;5073589;28;20077;-74
2021/01/17 00:08:30;;;;;;;2.38;0.43;;;;;;;;;;5071585;28;20093;-74
2021/01/17 00:10:57;;;;;;;6.15;1.38;;;;;;;;;;5073447;28;20104;-74
2021/01/17 00:13:24;;;;;;;4.22;0.40;;;;;;;;;;5071360;28;20035;-74
2021/01/17 00:15:51;;;;;;;4.65;0.50;;;;;;;;;;5070318;28;20052;-74
2021/01/17 00:18:18;;;;;;;5.82;0.65;;;;;;;;;;5070969;28;20554;-74
2021/01/17 00:20:45;;;;;;;9.65;1.15;;;;;;;;;;5073078;28;20047;-74
2021/01/17 00:23:13;;;;;;;4.97;0.80;;;;;;;;;;5071315;28;20477;-74
2021/01/17 00:25:40;;;;;;;9.73;0.93;;;;;;;;;;5073206;28;20075;-74
2021/01/17 00:28:07;;;;;;;5.78;1.25;;;;;;;;;;5071229;28;20032;-74
2021/01/17 00:30:34;;;;;;;5.55;0.85;;;;;;;;;;5070891;28;20029;-73
2021/01/17 00:33:02;;;;;;;5.43;0.95;;;;;;;;;;5070588;28;20082;-74
2021/01/17 00:35:31;;;;;;;4.18;0.60;;;;;;;;;;5072251;28;20465;-74
2021/01/17 00:37:59;;;;;;;4.78;0.82;;;;;;;;;;5070698;28;20032;-74
2021/01/17 00:40:27;;;;;;;4.30;0.80;;;;;;;;;;5072574;28;20080;-74
2021/01/17 00:42:55;;;;;;;6.80;1.17;;;;;;;;;;5065884;28;20070;-75
2021/01/17 00:45:24;;;;;;;6.55;1.15;;;;;;;;;;5072438;28;20055;-74
2021/01/17 00:47:52;;;;;;;8.18;0.80;;;;;;;;;;5064332;28;20184;-74
2021/01/17 00:50:20;;;;;;;5.35;0.82;;;;;;;;;;5072805;28;20033;-75
2021/01/17 00:52:52;;;;;;;5.93;0.77;;;;;;;;;;5052577;28;20043;-74
2021/01/17 00:55:19;;;;;;;6.45;1.20;;;;;;;;;;5070968;28;20036;-74
2021/01/17 00:57:46;;;;;;;10.40;1.25;;;;;;;;;;5068093;28;20032;-74
2021/01/17 01:00:14;;;;;;;3.60;0.80;;;;;;;;;;5092034;28;20503;-74
2021/01/17 01:02:42;;;;;;;7.80;1.23;;;;;;;;;;5091236;28;20039;-75
2021/01/17 01:05:11;;;;;;;8.30;1.05;;;;;;;;;;5079181;28;20115;-74
2021/01/17 01:07:38;;;;;;;7.05;1.27;;;;;;;;;;5072348;28;20017;-75
2021/01/17 01:10:08;;;;;;;4.68;0.80;;;;;;;;;;5070848;28;20288;-74
2021/01/17 01:12:36;;;;;;;8.77;0.65;;;;;;;;;;5089058;22;20441;-75
2021/01/17 01:15:04;;;;;;;6.00;1.67;;;;;;;;;;5079435;22;20117;-75
2021/01/17 01:17:31;;;;;;;13.27;1.95;;;;;;;;;;5098765;22;20078;-74
2021/01/17 01:19:59;;;;;;;3.80;0.55;;;;;;;;;;5088454;28;20039;-75
2021/01/17 01:22:26;;;;;;;6.45;1.27;;;;;;;;;;5091370;22;20048;-75
2021/01/17 01:24:53;;;;;;;8.52;0.82;;;;;;;;;;5067761;28;20134;-74
2021/01/17 01:27:20;;;;;;;8.18;0.90;;;;;;;;;;5071937;28;20109;-74
2021/01/17 01:29:47;;;;;;;5.30;0.80;;;;;;;;;;5067987;28;20048;-75
2021/01/17 01:32:14;;;;;;;4.00;0.90;;;;;;;;;;5078996;22;20052;-74
2021/01/17 01:34:41;;;;;;;6.43;0.90;;;;;;;;;;5068758;28;20417;-75
2021/01/17 01:37:08;;;;;;;6.10;0.90;;;;;;;;;;5070607;28;20033;-75
2021/01/17 01:39:38;;;;;;;8.88;1.38;;;;;;;;;;5069850;28;20500;-75
2021/01/17 01:42:08;;;;;;;5.30;1.20;;;;;;;;;;5069814;28;20497;-75
2021/01/17 01:44:35;;;;;;;7.80;0.98;;;;;;;;;;5068522;28;20031;-75
2021/01/17 01:47:03;;;;;;;9.68;1.27;;;;;;;;;;5071498;28;20052;-75
2021/01/17 01:49:31;;;;;;;5.18;0.98;;;;;;;;;;5086224;22;20066;-75
2021/01/17 01:52:01;;;;;;;9.65;1.20;;;;;;;;;;5071435;28;20048;-75
2021/01/17 01:54:28;;;;;;;7.68;1.00;;;;;;;;;;5051735;28;20037;-75
2021/01/17 01:56:56;;;;;;;7.70;1.05;;;;;;;;;;5069453;28;20012;-75
2021/01/17 01:59:23;;;;;;;5.70;1.95;;;;;;;;;;5069949;28;20029;-75
2021/01/17 02:01:50;;;;;;;5.35;0.90;;;;;;;;;;5071667;28;20666;-75
2021/01/17 02:04:17;;;;;;;8.20;1.23;;;;;;;;;;5069749;28;20107;-75
2021/01/17 02:06:58;;;;;;;5.75;0.82;;;;;;;;;;5070333;28;20055;-75
2021/01/17 02:09:26;;;;;;;8.70;0.90;;;;;;;;;;5069716;28;20032;-75
2021/01/17 02:12:03;;;;;;;7.10;1.65;;;;;;;;;;5071570;28;20027;-75
2021/01/17 02:14:39;;;;;;;5.55;1.30;;;;;;;;;;5069527;28;20438;-76
2021/01/17 02:17:07;;;;;;;10.70;1.65;;;;;;;;;;5069850;28;20028;-74
2021/01/17 02:22:09;;;;;;;6.95;1.48;;;;;;;;;;5081807;22;20059;-76
2021/01/17 02:24:58;;;;;;;8.32;1.45;;;;;;;;;;5069301;28;20029;-76
2021/01/17 02:27:25;;;;;;;4.57;1.20;;;;;;;;;;5071389;28;20029;-76
2021/01/17 02:29:53;;;;;;;9.07;1.42;;;;;;;;;;5072078;28;20181;-76
2021/01/17 02:32:22;;;;;;;10.65;1.55;;;;;;;;;;5071478;28;20021;-76
2021/01/17 02:34:50;;;;;;;7.38;1.40;;;;;;;;;;5067309;28;20032;-75
2021/01/17 02:37:20;;;;;;;10.27;1.52;;;;;;;;;;5064519;28;20107;-76
2021/01/17 02:39:53;;;;;;;7.90;1.55;;;;;;;;;;5083852;28;20024;-76
2021/01/17 02:42:20;;;;;;;9.88;2.33;;;;;;;;;;5074534;28;20032;-76
2021/01/17 02:44:48;;;;;;;9.88;1.88;;;;;;;;;;5080669;28;20489;-76
2021/01/17 02:47:15;;;;;;;9.45;1.80;;;;;;;;;;5091220;28;20499;-76
2021/01/17 02:49:42;;;;;;;12.77;2.13;;;;;;;;;;5087434;28;20431;-75
2021/01/17 02:52:09;;;;;;;10.77;2.08;;;;;;;;;;5091388;28;20021;-74
2021/01/17 02:54:43;;;;;;;11.68;1.98;;;;;;;;;;5073209;28;20044;-75
2021/01/17 02:57:11;;;;;;;11.65;2.40;;;;;;;;;;5068349;28;20052;-75
2021/01/17 02:59:53;;;;;;;13.93;2.28;;;;;;;;;;5068586;28;20037;-75
2021/01/17 03:02:23;;;;;;;8.85;2.33;;;;;;;;;;5070853;28;20028;-75
2021/01/17 03:04:59;;;;;;;9.85;1.80;;;;;;;;;;5068584;28;20047;-75
2021/01/17 03:07:30;;;;;;;10.95;2.05;;;;;;;;;;5069360;28;20170;-75
2021/01/17 03:09:57;;;;;;;7.18;1.77;;;;;;;;;;5068278;28;20538;-75
2021/01/17 03:12:24;;;;;;;10.65;1.95;;;;;;;;;;5069171;28;20033;-75
2021/01/17 03:14:53;;;;;;;11.93;1.63;;;;;;;;;;5085582;28;20016;-75
2021/01/17 03:17:20;;;;;;;11.00;2.75;;;;;;;;;;5091080;28;20032;-76
2021/01/17 03:19:47;;;;;;;8.10;1.77;;;;;;;;;;5073268;28;20062;-75
2021/01/17 03:22:14;;;;;;;11.18;1.70;;;;;;;;;;5072308;28;20024;-75
2021/01/17 03:24:41;;;;;;;10.88;1.83;;;;;;;;;;5077449;22;20049;-75
2021/01/17 03:27:08;;;;;;;12.60;1.85;;;;;;;;;;5081986;22;20048;-75
2021/01/17 03:29:35;;;;;;;8.63;1.73;;;;;;;;;;5099528;22;20054;-75
2021/01/17 03:32:02;;;;;;;10.20;2.05;;;;;;;;;;5094468;28;20025;-75
2021/01/17 03:34:29;;;;;;;13.82;2.00;;;;;;;;;;5080488;22;20068;-75
2021/01/17 03:36:56;;;;;;;10.25;2.63;;;;;;;;;;5067452;28;20036;-75
2021/01/17 03:39:23;;;;;;;10.43;2.03;;;;;;;;;;5081255;28;20038;-75
2021/01/17 03:41:51;;;;;;;12.63;3.00;;;;;;;;;;5094409;28;20050;-74
2021/01/17 03:44:18;;;;;;;8.38;1.45;;;;;;;;;;5076636;22;20049;-75
2021/01/17 03:46:45;;;;;;;7.90;1.70;;;;;;;;;;5054305;28;20478;-75
2021/01/17 03:49:12;;;;;;;8.95;1.42;;;;;;;;;;5062468;28;20056;-76
2021/01/17 03:51:39;;;;;;;9.52;1.98;;;;;;;;;;5073916;28;20016;-76
2021/01/17 03:54:06;;;;;;;6.80;1.85;;;;;;;;;;5070243;28;20140;-75
2021/01/17 03:56:33;;;;;;;11.30;1.90;;;;;;;;;;5051360;28;20029;-74
2021/01/17 03:59:00;;;;;;;7.35;2.35;;;;;;;;;;5043893;28;20470;-75
2021/01/17 04:01:28;;;;;;;9.52;1.70;;;;;;;;;;5088946;22;20052;-75
2021/01/17 04:03:57;;;;;;;12.23;2.67;;;;;;;;;;5071722;28;20032;-75
2021/01/17 04:06:25;;;;;;;8.55;1.75;;;;;;;;;;5071230;28;20028;-75
2021/01/17 04:08:52;;;;;;;11.23;1.85;;;;;;;;;;5076094;28;20024;-75
2021/01/17 04:11:20;;;;;;;10.23;1.85;;;;;;;;;;5093759;28;20431;-75
2021/01/17 04:13:47;;;;;;;13.15;2.25;;;;;;;;;;5072629;28;20037;-75
2021/01/17 04:16:14;;;;;;;9.73;2.05;;;;;;;;;;5073544;28;20099;-76
2021/01/17 04:18:41;;;;;;;10.23;1.75;;;;;;;;;;5066719;28;20052;-75
2021/01/17 04:21:09;;;;;;;9.60;1.67;;;;;;;;;;5073026;28;20032;-75
2021/01/17 04:23:36;;;;;;;11.70;2.00;;;;;;;;;;5071207;28;20017;-75
2021/01/17 04:26:03;;;;;;;11.80;1.98;;;;;;;;;;5073134;28;20364;-75
2021/01/17 04:28:30;;;;;;;11.52;2.10;;;;;;;;;;5075955;28;20043;-75
2021/01/17 04:30:57;;;;;;;11.90;1.75;;;;;;;;;;5083544;28;20108;-75
2021/01/17 04:33:24;;;;;;;9.07;2.50;;;;;;;;;;5062754;22;20049;-75
2021/01/17 04:35:51;;;;;;;11.13;1.50;;;;;;;;;;5034688;28;20021;-75
2021/01/17 04:38:18;;;;;;;10.18;2.13;;;;;;;;;;5035280;28;20025;-75
2021/01/17 04:40:46;;;;;;;8.23;1.88;;;;;;;;;;5013170;28;20069;-75
2021/01/17 04:43:30;;;;;;;9.93;2.13;;;;;;;;;;5016756;28;20279;-75
2021/01/17 04:46:01;;;;;;;9.23;1.85;;;;;;;;;;5031639;28;20059;-75
2021/01/17 04:48:28;;;;;;;10.13;1.88;;;;;;;;;;5029646;28;20375;-75
2021/01/17 04:51:01;;;;;;;11.55;2.83;;;;;;;;;;5032684;28;20087;-75
2021/01/17 04:53:29;;;;;;;13.77;2.38;;;;;;;;;;5031562;28;20024;-75
2021/01/17 04:56:12;;;;;;;13.60;2.67;;;;;;;;;;5032782;28;20025;-75
2021/01/17 04:58:44;;;;;;;11.50;2.00;;;;;;;;;;5030476;28;20029;-74
2021/01/17 05:01:22;;;;;;;11.48;2.03;;;;;;;;;;5031064;28;20041;-75
2021/01/17 05:04:27;;;;;;;12.02;2.33;;;;;;;;;;5030680;28;20029;-75
2021/01/17 05:06:58;;;;;;;17.98;2.60;;;;;;;;;;4990835;28;20031;-75
2021/01/17 05:09:33;;;;;;;8.45;1.55;;;;;;;;;;4989726;28;20547;-75
2021/01/17 05:12:14;;;;;;;9.45;2.35;;;;;;;;;;5012664;28;20045;-75
2021/01/17 05:14:49;;;;;;;13.75;2.50;;;;;;;;;;5026899;28;20034;-75
2021/01/17 05:17:25;;;;;;;11.32;1.98;;;;;;;;;;5032136;28;20030;-75
2021/01/17 05:19:54;;;;;;;8.85;1.60;;;;;;;;;;5031044;28;20065;-75
2021/01/17 05:22:21;;;;;;;14.48;2.05;;;;;;;;;;5032407;28;20032;-75
2021/01/17 05:24:54;;;;;;;11.68;2.35;;;;;;;;;;5029979;28;20071;-75
2021/01/17 05:27:21;;;;;;;10.80;1.73;;;;;;;;;;5015777;28;20037;-75
2021/01/17 05:29:48;;;;;;;10.27;1.80;;;;;;;;;;5028995;28;20026;-75
2021/01/17 05:32:16;;;;;;;12.75;2.05;;;;;;;;;;5032139;28;20040;-75
2021/01/17 05:34:43;;;;;;;9.27;2.20;;;;;;;;;;5067792;22;20045;-75
2021/01/17 05:37:12;;;;;;;11.15;1.95;;;;;;;;;;5066509;22;20132;-74
2021/01/17 05:39:54;;;;;;;8.98;1.30;;;;;;;;;;5068376;28;20052;-75
2021/01/17 05:42:22;;;;;;;11.10;2.20;;;;;;;;;;5079140;22;20040;-75
2021/01/17 05:44:49;;;;;;;8.68;1.95;;;;;;;;;;5069226;28;20289;-75
2021/01/17 05:47:26;;;;;;;8.50;1.63;;;;;;;;;;5053780;28;20036;-75
2021/01/17 05:50:05;;;;;;;9.65;2.08;;;;;;;;;;5069874;28;20025;-75
2021/01/17 05:52:32;;;;;;;12.43;2.00;;;;;;;;;;5072031;22;20052;-75
2021/01/17 05:55:00;;;;;;;11.15;1.73;;;;;;;;;;5042112;28;20025;-75
2021/01/17 05:57:27;;;;;;;9.48;1.75;;;;;;;;;;5041307;28;20060;-75
2021/01/17 05:59:54;;;;;;;14.73;2.35;;;;;;;;;;5064922;28;20035;-75
2021/01/17 06:02:24;;;;;;;10.50;2.05;;;;;;;;;;5071240;28;20045;-75
2021/01/17 06:04:58;;;;;;;15.68;2.38;;;;;;;;;;5051095;28;20029;-75
2021/01/17 06:07:26;;;;;;;13.60;2.22;;;;;;;;;;5057545;22;20048;-75
2021/01/17 06:10:00;;;;;;;12.85;2.30;;;;;;;;;;5069575;28;20032;-75
2021/01/17 06:12:34;;;;;;;12.13;2.00;;;;;;;;;;5071821;28;20450;-76
2021/01/17 06:15:19;;;;;;;11.95;2.03;;;;;;;;;;5068578;28;20361;-75
2021/01/17 06:17:47;;;;;;;9.27;1.80;;;;;;;;;;5070267;28;20028;-76
2021/01/17 06:20:32;;;;;;;9.45;1.90;;;;;;;;;;5069872;28;20036;-75
2021/01/17 06:23:01;;;;;;;6.95;1.20;;;;;;;;;;5068785;28;20032;-75
2021/01/17 06:25:32;;;;;;;13.27;1.98;;;;;;;;;;5071126;28;20492;-75
2021/01/17 06:28:08;;;;;;;13.77;2.53;;;;;;;;;;5069447;28;20036;-75
2021/01/17 06:30:36;;;;;;;12.55;2.33;;;;;;;;;;5070512;28;20033;-75
2021/01/17 06:33:06;;;;;;;14.35;2.05;;;;;;;;;;5069078;28;20025;-75
2021/01/17 06:35:34;;;;;;;10.18;2.00;;;;;;;;;;5071182;28;20032;-75
2021/01/17 06:38:17;;;;;;;9.27;2.10;;;;;;;;;;5069209;28;20047;-75
2021/01/17 06:40:46;;;;;;;10.38;1.90;;;;;;;;;;5078798;22;20060;-75
2021/01/17 06:43:13;;;;;;;18.80;2.45;;;;;;;;;;5067536;28;20021;-75
2021/01/17 06:45:44;;;;;;;15.73;3.03;;;;;;;;;;5070899;28;20031;-75
2021/01/17 06:48:24;;;;;;;13.30;2.13;;;;;;;;;;5067144;28;20107;-75
2021/01/17 06:50:51;;;;;;;9.35;1.55;;;;;;;;;;5051075;28;20021;-75
2021/01/17 06:53:25;;;;;;;12.95;2.72;;;;;;;;;;5051074;28;20025;-75
2021/01/17 06:56:14;;;;;;;7.47;1.23;;;;;;;;;;5054846;28;20021;-75
2021/01/17 06:58:42;;;;;;;14.75;2.25;;;;;;;;;;5052835;28;20381;-75
2021/01/17 07:01:09;;;;;;;11.93;2.22;;;;;;;;;;5053353;28;20083;-75
2021/01/17 07:03:56;;;;;;;10.15;1.65;;;;;;;;;;5052903;28;20017;-74
2021/01/17 07:06:41;;;;;;;10.15;1.92;;;;;;;;;;5041860;28;20421;-74
2021/01/17 07:09:21;;;;;;;12.95;2.20;;;;;;;;;;5045453;28;20468;-74
2021/01/17 07:11:56;;;;;;;9.75;2.22;;;;;;;;;;5059181;28;20025;-74
2021/01/17 07:14:27;;;;;;;14.32;2.85;;;;;;;;;;5051571;28;20094;-72
2021/01/17 07:16:56;;;;;;;11.20;1.95;;;;;;;;;;5043349;28;20049;-72
2021/01/17 07:19:30;;;;;;;8.93;2.30;;;;;;;;;;5051492;28;20025;-73
2021/01/17 07:21:57;;;;;;;;;;;;;;;;;;5054174;28;20116;-74
2021/01/17 07:24:27;;;;;;;15.98;2.03;;;;;;;;;;5052807;28;20016;-74
2021/01/17 07:27:08;;;;;;;7.28;1.60;;;;;;;;;;5053488;28;20033;-74
2021/01/17 07:29:37;;;;;;;12.50;2.33;;;;;;;;;;5053089;28;20070;-73
2021/01/17 07:32:13;;;;;;;12.75;2.67;;;;;;;;;;5054898;28;20025;-75
2021/01/17 07:34:44;;;;;;;7.88;1.90;;;;;;;;;;5054374;28;20035;-74
2021/01/17 07:37:12;;;;;;;10.07;1.60;;;;;;;;;;5053978;28;20037;-74
2021/01/17 07:39:40;;;;;;;12.25;2.38;;;;;;;;;;5052970;28;20057;-74
2021/01/17 07:42:10;;;;;;;18.95;2.85;;;;;;;;;;5033554;28;20033;-73
2021/01/17 07:44:42;;;;;;;11.90;2.15;;;;;;;;;;5049357;28;20032;-74
2021/01/17 07:47:13;;;;;;;11.00;2.08;;;;;;;;;;5053443;28;20025;-73
2021/01/17 07:49:40;;;;;;;11.77;2.53;;;;;;;;;;5053353;28;20028;-74
2021/01/17 07:52:07;;;;;;;14.65;2.35;;;;;;;;;;5035027;28;20025;-74
2021/01/17 07:54:36;;;;;;;8.30;1.73;;;;;;;;;;5030923;28;20550;-74
2021/01/17 07:57:07;;;;;;;10.50;1.67;;;;;;;;;;5053820;28;20036;-73
2021/01/17 07:59:34;;;;;;;15.52;2.72;;;;;;;;;;5053301;28;20017;-73
2021/01/17 08:02:01;;;;;;;12.15;2.20;;;;;;;;;;5051600;28;20032;-74
2021/01/17 08:04:29;;;;;;;14.27;2.67;;;;;;;;;;5052379;28;20028;-73
2021/01/17 08:06:57;;;;;;;13.00;2.28;;;;;;;;;;5053606;28;20017;-73
2021/01/17 08:09:44;;;;;;;13.90;3.22;;;;;;;;;;5051128;28;20100;-74
2021/01/17 08:12:11;;;;;;;16.33;2.60;;;;;;;;;;5033817;28;20036;-73
2021/01/17 08:14:41;;;;;;;14.40;2.00;;;;;;;;;;5047226;28;20029;-74
2021/01/17 08:17:21;;;;;;;9.85;1.75;;;;;;;;;;5052794;28;20025;-75
2021/01/17 08:19:54;;;;;;;16.23;1.98;;;;;;;;;;5052030;28;20029;-74
2021/01/17 08:22:24;;;;;;;15.50;2.90;;;;;;;;;;5051078;28;20061;-74
2021/01/17 08:24:58;;;;;;;12.38;2.30;;;;;;;;;;5053036;28;20096;-74
2021/01/17 08:27:35;;;;;;;11.37;2.03;;;;;;;;;;5052144;28;20025;-74
2021/01/17 08:30:08;;;;;;;14.35;2.42;;;;;;;;;;5052424;28;20029;-73
2021/01/17 08:32:45;;;;;;;14.05;3.25;;;;;;;;;;5052207;28;20433;-74
2021/01/17 08:35:18;;;;;;;13.02;2.55;;;;;;;;;;5052544;28;20021;-73
2021/01/17 08:37:48;;;;;;;14.82;4.03;;;;;;;;;;5050278;28;20021;-75
2021/01/17 08:43:15;;;;;;;12.70;2.58;;;;;;;;;;5098469;22;20049;-76
2021/01/17 08:45:42;;;;;;;10.27;2.40;;;;;;;;;;5088537;22;20052;-75
2021/01/17 08:50:38;;;;;;;11.98;2.20;;;;;;;;;;5073497;22;20588;-75
2021/01/17 08:53:13;;;;;;;13.95;2.95;;;;;;;;;;5065954;28;20158;-76
2021/01/17 08:55:39;;;;;;;;;;;;;;;;;;5071320;28;20021;-75
2021/01/17 08:58:07;;;;;;;12.98;1.55;;;;;;;;;;5079807;22;20286;-76
2021/01/17 09:00:52;;;;;;;12.00;2.03;;;;;;;;;;5052242;28;20025;-76
2021/01/17 09:03:37;;;;;;;11.38;2.13;;;;;;;;;;5051977;28;20048;-76
2021/01/17 09:06:24;;;;;;;9.90;2.72;;;;;;;;;;5047983;28;20028;-76
2021/01/17 09:08:55;;;;;;;10.30;2.53;;;;;;;;;;5052104;28;20052;-75
2021/01/17 09:11:33;;;;;;;16.98;1.92;;;;;;;;;;5052280;28;20048;-75
2021/01/17 09:14:10;;;;;;;10.52;1.83;;;;;;;;;;5071821;22;21160;-76
2021/01/17 09:16:39;;;;;;;11.18;2.30;;;;;;;;;;5070380;28;20031;-76
2021/01/17 09:19:09;;;;;;;10.63;3.03;;;;;;;;;;5065581;28;20017;-76
2021/01/17 09:21:36;;;;;;;10.32;2.42;;;;;;;;;;5051863;28;20039;-76
2021/01/17 09:24:07;;;;;;;11.80;2.83;;;;;;;;;;5051729;28;20056;-75
2021/01/17 09:26:34;;;;;;;12.90;3.30;;;;;;;;;;5051231;28;20021;-75
2021/01/17 09:29:01;;;;;;;10.80;2.55;;;;;;;;;;5051394;28;20105;-76
2021/01/17 09:31:29;;;;;;;7.47;1.95;;;;;;;;;;5038787;28;20360;-75
2021/01/17 09:33:56;;;;;;;16.10;2.15;;;;;;;;;;5031823;28;20055;-75
2021/01/17 09:36:24;;;;;;;11.63;2.08;;;;;;;;;;5048473;28;20058;-75
2021/01/17 09:38:52;;;;;;;12.85;2.03;;;;;;;;;;5033908;28;20039;-76
2021/01/17 09:41:23;;;;;;;12.95;2.67;;;;;;;;;;5051376;28;20036;-76
2021/01/17 09:43:51;;;;;;;13.10;2.42;;;;;;;;;;5048890;28;20025;-76
2021/01/17 09:46:23;;;;;;;17.30;2.85;;;;;;;;;;5050965;28;20033;-75
2021/01/17 09:48:57;;;;;;;10.55;2.53;;;;;;;;;;5087319;22;20045;-75
2021/01/17 09:51:25;;;;;;;11.23;2.40;;;;;;;;;;5052702;28;20119;-75
2021/01/17 09:53:54;;;;;;;16.13;3.05;;;;;;;;;;5071263;28;20040;-75
2021/01/17 09:56:21;;;;;;;11.90;2.08;;;;;;;;;;5071497;28;20025;-75
2021/01/17 09:58:48;;;;;;;15.57;2.45;;;;;;;;;;5065643;28;20033;-75
2021/01/17 10:01:19;;;;;;;13.98;2.65;;;;;;;;;;5069778;28;20070;-75
2021/01/17 10:03:47;;;;;;;16.65;2.85;;;;;;;;;;5070820;28;20086;-75
2021/01/17 10:06:15;;;;;;;14.18;2.13;;;;;;;;;;5071097;28;20028;-75
2021/01/17 10:08:42;;;;;;;12.15;2.50;;;;;;;;;;5054329;28;20025;-76
2021/01/17 10:11:09;;;;;;;9.05;2.30;;;;;;;;;;5051506;28;20055;-75
2021/01/17 10:13:36;;;;;;;13.77;2.20;;;;;;;;;;5070633;28;20031;-75
2021/01/17 10:16:03;;;;;;;8.82;3.00;;;;;;;;;;5070659;28;20024;-75
2021/01/17 10:18:30;;;;;;;11.63;2.33;;;;;;;;;;5066794;28;20354;-76
2021/01/17 10:20:57;;;;;;;12.02;3.75;;;;;;;;;;5067160;28;20041;-76
2021/01/17 10:23:32;;;;;;;16.05;2.63;;;;;;;;;;5067127;28;20024;-75
2021/01/17 10:25:59;;;;;;;16.67;2.45;;;;;;;;;;5066950;28;20025;-75
2021/01/17 10:28:27;;;;;;;10.63;2.13;;;;;;;;;;5070666;28;20103;-75
2021/01/17 10:31:00;;;;;;;15.82;2.10;;;;;;;;;;5075492;28;20422;-76
2021/01/17 10:33:31;;;;;;;15.77;2.33;;;;;;;;;;5072631;28;20032;-75
2021/01/17 10:35:58;;;;;;;11.00;1.98;;;;;;;;;;5067822;28;20029;-76
2021/01/17 10:38:25;;;;;;;12.75;2.03;;;;;;;;;;5070108;28;20021;-75
2021/01/17 10:40:52;;;;;;;13.63;2.92;;;;;;;;;;5068523;28;20040;-76
2021/01/17 10:43:25;;;;;;;11.07;2.47;;;;;;;;;;5069657;28;20016;-76
2021/01/17 10:45:55;;;;;;;11.52;2.45;;;;;;;;;;5053021;28;20032;-76
2021/01/17 10:48:22;;;;;;;14.05;2.42;;;;;;;;;;5078356;22;20037;-76
2021/01/17 10:51:01;;;;;;;14.52;2.38;;;;;;;;;;5072392;22;20045;-76
2021/01/17 10:53:48;;;;;;;15.35;2.25;;;;;;;;;;5095862;22;20071;-76
2021/01/17 10:56:20;;;;;;;15.82;2.05;;;;;;;;;;5097220;22;20052;-76
2021/01/17 10:58:48;;;;;;;11.25;2.03;;;;;;;;;;5062553;28;20032;-76
2021/01/17 11:01:16;;;;;;;12.98;1.92;;;;;;;;;;5073850;28;20116;-76
2021/01/17 11:03:44;;;;;;;12.07;2.88;;;;;;;;;;5064564;28;20065;-76
2021/01/17 11:06:14;;;;;;;13.45;2.17;;;;;;;;;;5069621;22;20056;-76
2021/01/17 11:08:45;;;;;;;12.05;1.75;;;;;;;;;;5048729;28;20020;-76
2021/01/17 11:11:14;;;;;;;14.75;2.05;;;;;;;;;;5061750;28;20075;-76
2021/01/17 11:13:42;;;;;;;14.38;2.40;;;;;;;;;;5072297;28;20024;-76
2021/01/17 11:16:09;;;;;;;16.85;2.15;;;;;;;;;;5073851;28;20489;-76
2021/01/17 11:18:36;;;;;;;10.85;1.90;;;;;;;;;;5069652;28;20060;-76
2021/01/17 11:21:06;;;;;;;13.70;2.30;;;;;;;;;;5059706;28;20036;-76
2021/01/17 11:23:34;;;;;;;8.48;1.73;;;;;;;;;;5105173;22;20105;-76
2021/01/17 11:26:05;;;;;;;12.13;2.20;;;;;;;;;;5094506;28;20035;-76
2021/01/17 11:28:32;;;;;;;10.77;1.73;;;;;;;;;;5092407;28;20085;-76
2021/01/17 11:31:16;;;;;;;9.20;1.70;;;;;;;;;;5092738;28;20369;-76
2021/01/17 11:33:43;;;;;;;17.90;2.33;;;;;;;;;;5080910;28;20526;-76
2021/01/17 11:36:11;;;;;;;13.90;2.65;;;;;;;;;;5093228;28;20622;-76
2021/01/17 11:38:47;;;;;;;12.57;2.38;;;;;;;;;;5089959;28;20024;-76
2021/01/17 11:41:18;;;;;;;11.70;1.90;;;;;;;;;;5092699;28;20122;-76
2021/01/17 11:43:46;;;;;;;16.95;2.78;;;;;;;;;;5092424;28;20027;-76
2021/01/17 11:46:14;;;;;;;12.60;2.70;;;;;;;;;;5094030;28;20036;-76
2021/01/17 11:48:42;;;;;;;13.23;1.73;;;;;;;;;;5086091;28;20051;-76
2021/01/17 11:51:10;;;;;;;14.00;2.35;;;;;;;;;;5093236;28;20043;-76
2021/01/17 11:56:03;;;;;;;18.05;2.53;;;;;;;;;;5073106;22;20036;-76
2021/01/17 11:58:39;;;;;;;11.10;2.10;;;;;;;;;;5068475;28;20154;-76
2021/01/17 12:01:06;;;;;;;11.00;1.73;;;;;;;;;;5049028;28;20036;-76
2021/01/17 12:03:36;;;;;;;12.93;1.55;;;;;;;;;;5050467;28;20017;-76
2021/01/17 12:06:05;;;;;;;18.90;2.40;;;;;;;;;;5053639;28;20033;-76
2021/01/17 12:08:50;;;;;;;15.90;2.40;;;;;;;;;;5045243;28;20018;-76
2021/01/17 12:11:35;;;;;;;11.25;2.03;;;;;;;;;;5044944;28;20039;-76
2021/01/17 12:14:12;;;;;;;13.23;2.05;;;;;;;;;;5035453;28;20029;-76
2021/01/17 12:16:41;;;;;;;11.07;2.22;;;;;;;;;;5033306;28;20030;-76
2021/01/17 12:19:08;;;;;;;9.70;1.80;;;;;;;;;;5039162;28;20020;-76
2021/01/17 12:21:36;;;;;;;12.27;1.88;;;;;;;;;;5046916;28;20090;-76
2021/01/17 12:24:04;;;;;;;15.77;2.63;;;;;;;;;;5049320;28;20104;-76
2021/01/17 12:26:31;;;;;;;13.75;2.42;;;;;;;;;;5046960;28;20025;-76
2021/01/17 12:28:58;;;;;;;14.70;2.72;;;;;;;;;;5042011;28;20117;-76
2021/01/17 12:31:26;;;;;;;14.95;2.78;;;;;;;;;;5044064;28;20565;-76
2021/01/17 12:33:54;;;;;;;17.17;2.78;;;;;;;;;;5050091;28;20032;-76
2021/01/17 12:36:22;;;;;;;12.18;1.98;;;;;;;;;;5052858;28;20354;-76
2021/01/17 12:38:49;;;;;;;13.05;2.22;;;;;;;;;;5038360;28;20040;-76
2021/01/17 12:41:18;;;;;;;13.13;2.80;;;;;;;;;;5042747;28;20052;-76
2021/01/17 12:43:45;;;;;;;14.75;2.80;;;;;;;;;;5035482;28;20490;-76
2021/01/17 12:46:13;;;;;;;13.00;2.13;;;;;;;;;;5047810;28;20025;-76
2021/01/17 12:48:41;;;;;;;17.20;2.38;;;;;;;;;;5043116;28;20101;-76
2021/01/17 12:51:08;;;;;;;9.82;1.80;;;;;;;;;;5041604;28;20025;-76
2021/01/17 12:53:36;;;;;;;16.38;2.33;;;;;;;;;;5043335;28;20105;-76
2021/01/17 12:56:04;;;;;;;8.15;2.20;;;;;;;;;;5080191;22;20056;-76
2021/01/17 12:58:31;;;;;;;11.18;2.20;;;;;;;;;;5080982;22;20075;-76
2021/01/17 13:00:58;;;;;;;10.10;2.00;;;;;;;;;;5052119;28;20037;-76
2021/01/17 13:03:25;;;;;;;16.10;2.00;;;;;;;;;;5065824;22;20053;-76
2021/01/17 13:05:53;;;;;;;10.23;1.52;;;;;;;;;;5072484;28;20103;-76
2021/01/17 13:08:20;;;;;;;13.40;1.77;;;;;;;;;;5067535;28;20366;-76
2021/01/17 13:10:48;;;;;;;12.27;2.35;;;;;;;;;;5051851;28;20546;-76
2021/01/17 13:13:16;;;;;;;9.65;2.13;;;;;;;;;;5101684;22;20153;-76
2021/01/17 13:15:46;;;;;;;11.70;2.38;;;;;;;;;;5090230;28;20433;-76
2021/01/17 13:18:13;;;;;;;9.20;2.03;;;;;;;;;;5099306;28;20024;-76
2021/01/17 13:20:41;;;;;;;14.57;2.10;;;;;;;;;;5091833;28;20532;-76
2021/01/17 13:23:08;;;;;;;17.63;2.63;;;;;;;;;;5088991;28;20012;-76
2021/01/17 13:25:40;;;;;;;10.32;1.83;;;;;;;;;;5074275;28;20374;-75
2021/01/17 13:28:07;;;;;;;13.57;2.28;;;;;;;;;;5101533;22;20000;-76
2021/01/17 13:30:35;;;;;;;16.60;2.08;;;;;;;;;;5048238;28;20044;-76
2021/01/17 13:33:04;;;;;;;9.23;1.90;;;;;;;;;;5049721;28;20087;-76
2021/01/17 13:35:32;;;;;;;14.70;2.53;;;;;;;;;;5051899;28;20040;-76
2021/01/17 13:38:00;;;;;;;12.88;2.33;;;;;;;;;;5044230;28;22404;-76
2021/01/17 13:40:27;;;;;;;12.00;1.75;;;;;;;;;;5050601;28;20032;-76
2021/01/17 13:42:54;;;;;;;10.63;2.67;;;;;;;;;;5047576;28;20033;-76
2021/01/17 13:45:21;;;;;;;12.23;1.88;;;;;;;;;;5051751;28;20146;-76
2021/01/17 13:47:48;;;;;;;13.02;1.83;;;;;;;;;;5049408;28;20429;-76
2021/01/17 13:50:15;;;;;;;11.65;1.95;;;;;;;;;;5051164;28;20071;-76
2021/01/17 13:52:43;;;;;;;14.10;2.13;;;;;;;;;;5050409;28;20040;-76
2021/01/17 13:55:11;;;;;;;10.55;2.38;;;;;;;;;;5049080;28;20049;-76
2021/01/17 13:57:39;;;;;;;14.68;2.25;;;;;;;;;;5048906;28;20033;-76
2021/01/17 14:02:32;;;;;;;15.23;2.80;;;;;;;;;;5079322;22;20047;-76
2021/01/17 14:04:59;;;;;;;9.27;1.60;;;;;;;;;;5051220;28;20061;-76
2021/01/17 14:07:26;;;;;;;11.02;2.20;;;;;;;;;;5070353;28;20032;-76
2021/01/17 14:09:53;;;;;;;10.75;1.67;;;;;;;;;;5069485;28;20107;-76
2021/01/17 14:12:21;;;;;;;14.25;2.95;;;;;;;;;;5071416;28;20504;-76
2021/01/17 14:14:48;;;;;;;15.00;2.88;;;;;;;;;;5069777;28;20490;-76
2021/01/17 14:17:15;;;;;;;19.13;2.63;;;;;;;;;;5051868;28;20032;-75
2021/01/17 14:19:43;;;;;;;12.75;2.47;;;;;;;;;;5069306;28;20035;-75
2021/01/17 14:22:13;;;;;;;10.57;2.60;;;;;;;;;;5070774;28;20028;-75
2021/01/17 14:24:40;;;;;;;16.83;1.92;;;;;;;;;;5068208;28;20024;-76
2021/01/17 14:27:08;;;;;;;12.40;2.65;;;;;;;;;;5069759;28;20113;-76
2021/01/17 14:29:35;;;;;;;8.85;2.15;;;;;;;;;;5069041;28;20027;-76
2021/01/17 14:32:02;;;;;;;10.85;1.73;;;;;;;;;;5066112;28;20025;-76
2021/01/17 14:34:30;;;;;;;11.35;2.28;;;;;;;;;;5050727;28;20342;-76
2021/01/17 14:36:57;;;;;;;9.45;1.98;;;;;;;;;;5052867;28;20020;-76
2021/01/17 14:39:26;;;;;;;10.98;1.85;;;;;;;;;;5069220;28;20029;-75
2021/01/17 14:41:57;;;;;;;10.32;2.60;;;;;;;;;;5051939;28;20043;-76
2021/01/17 14:44:24;;;;;;;9.93;2.17;;;;;;;;;;5069249;28;20029;-75
2021/01/17 14:46:52;;;;;;;13.80;3.33;;;;;;;;;;5070665;28;20020;-76
2021/01/17 14:49:20;;;;;;;16.35;2.22;;;;;;;;;;5068869;28;20095;-76
2021/01/17 14:51:47;;;;;;;12.25;2.38;;;;;;;;;;5070155;28;20033;-76
2021/01/17 14:54:16;;;;;;;9.77;1.55;;;;;;;;;;5066608;28;20103;-76
2021/01/17 14:56:45;;;;;;;17.02;2.47;;;;;;;;;;5047336;28;20082;-76
2021/01/17 14:59:13;;;;;;;12.32;1.98;;;;;;;;;;5068807;28;20028;-76
2021/01/17 15:01:40;;;;;;;13.05;1.75;;;;;;;;;;5087609;22;20079;-75
2021/01/17 15:04:08;;;;;;;13.18;3.25;;;;;;;;;;5059533;23;20370;-76